createdAt,value
2016-10-28T00:00:16.017Z,0
2016-10-28T00:01:15.399Z,0
2016-10-28T00:02:16.090Z,0
2016-10-28T00:03:16.379Z,0
2016-10-28T00:04:15.762Z,0
2016-10-28T00:05:16.731Z,0
2016-10-28T00:06:15.797Z,0
2016-10-28T00:07:16.457Z,0
2016-10-28T00:08:16.193Z,0
2016-10-28T00:09:16.474Z,0
2016-10-28T00:10:15.866Z,0
2016-10-28T00:11:16.198Z,0
2016-10-28T00:12:16.290Z,0
2016-10-28T00:13:16.864Z,0
2016-10-28T00:14:16.573Z,0
2016-10-28T00:15:16.583Z,0
2016-10-28T00:16:16.594Z,0
2016-10-28T00:17:15.986Z,0
2016-10-28T00:18:16.332Z,0
2016-10-28T00:19:16.026Z,0
2016-10-28T00:20:16.383Z,0
2016-10-28T00:21:16.057Z,0
2016-10-28T00:22:16.402Z,0
2016-10-28T00:23:16.728Z,0
2016-10-28T00:24:16.427Z,0
2016-10-28T00:25:16.786Z,0
2016-10-28T00:26:16.476Z,0
2016-10-28T00:27:16.509Z,0
2016-10-28T00:28:16.492Z,0
2016-10-28T00:29:16.833Z,0
2016-10-28T00:30:16.530Z,0
2016-10-28T00:31:16.539Z,0
2016-10-28T00:32:16.865Z,0
2016-10-28T00:33:16.272Z,0
2016-10-28T00:34:16.309Z,0
2016-10-28T00:35:16.285Z,0
2016-10-28T00:36:16.934Z,0
2016-10-28T00:37:16.639Z,0
2016-10-28T00:38:16.991Z,0
2016-10-28T00:39:16.358Z,0
2016-10-28T00:40:17.351Z,0
2016-10-28T00:41:16.740Z,0
2016-10-28T00:42:16.729Z,0
2016-10-28T00:43:16.739Z,0
2016-10-28T00:44:16.444Z,0
2016-10-28T00:45:16.850Z,0
2016-10-28T00:46:16.480Z,0
2016-10-28T00:47:16.847Z,0
2016-10-28T00:48:16.509Z,0
2016-10-28T00:49:16.241Z,0
2016-10-28T00:50:16.868Z,0
2016-10-28T00:51:16.564Z,0
2016-10-28T00:52:16.285Z,0
2016-10-28T00:53:16.910Z,0
2016-10-28T00:54:17.254Z,0
2016-10-28T00:55:17.275Z,0
2016-10-28T00:56:16.972Z,0
2016-10-28T00:57:17.307Z,0
2016-10-28T00:58:16.694Z,0
2016-10-28T00:59:17.351Z,0
2016-10-28T01:00:17.038Z,0
2016-10-28T01:01:16.421Z,0
2016-10-28T01:02:16.755Z,0
2016-10-28T01:03:17.095Z,0
2016-10-28T01:04:16.788Z,0
2016-10-28T01:05:16.807Z,0
2016-10-28T01:06:17.777Z,0
2016-10-28T01:07:16.525Z,0
2016-10-28T01:08:16.896Z,0
2016-10-28T01:09:17.197Z,0
2016-10-28T01:10:17.529Z,0
2016-10-28T01:11:17.540Z,0
2016-10-28T01:12:17.244Z,0
2016-10-28T01:13:16.634Z,0
2016-10-28T01:14:16.647Z,0
2016-10-28T01:15:16.984Z,0
2016-10-28T01:16:17.329Z,0
2016-10-28T01:17:17.028Z,0
2016-10-28T01:18:17.374Z,0
2016-10-28T01:19:17.391Z,0
2016-10-28T01:20:17.072Z,0
2016-10-28T01:21:17.387Z,0
2016-10-28T01:22:17.118Z,0
2016-10-28T01:23:17.135Z,0
2016-10-28T01:24:17.447Z,0
2016-10-28T01:25:17.470Z,0
2016-10-28T01:26:17.482Z,0
2016-10-28T01:27:17.813Z,0
2016-10-28T01:28:17.521Z,0
2016-10-28T01:29:17.216Z,0
2016-10-28T01:30:17.552Z,0
2016-10-28T01:31:17.887Z,0
2016-10-28T01:32:17.907Z,0
2016-10-28T01:33:16.975Z,0
2016-10-28T01:34:17.346Z,0
2016-10-28T01:35:17.984Z,0
2016-10-28T01:36:17.650Z,0
2016-10-28T01:37:18.022Z,0
2016-10-28T01:38:17.694Z,0
2016-10-28T01:39:18.379Z,0
2016-10-28T01:40:17.756Z,0
2016-10-28T01:41:18.064Z,0
2016-10-28T01:42:17.750Z,0
2016-10-28T01:43:17.140Z,0
2016-10-28T01:44:18.414Z,0
2016-10-28T01:45:17.806Z,0
2016-10-28T01:46:18.147Z,0
2016-10-28T01:47:18.153Z,0
2016-10-28T01:48:17.220Z,0
2016-10-28T01:49:18.547Z,0
2016-10-28T01:50:18.213Z,0
2016-10-28T01:51:17.913Z,0
2016-10-28T01:52:17.967Z,0
2016-10-28T01:53:18.605Z,0
2016-10-28T01:54:18.278Z,0
2016-10-28T01:55:17.340Z,0
2016-10-28T01:56:17.697Z,0
2016-10-28T01:57:18.010Z,0
2016-10-28T01:58:17.749Z,0
2016-10-28T01:59:18.365Z,0
2016-10-28T02:00:17.427Z,0
2016-10-28T02:01:18.396Z,0
2016-10-28T02:02:17.783Z,0
2016-10-28T02:03:18.109Z,0
2016-10-28T02:04:18.127Z,0
2016-10-28T02:05:18.141Z,0
2016-10-28T02:06:18.162Z,0
2016-10-28T02:07:17.579Z,0
2016-10-28T02:08:18.202Z,0
2016-10-28T02:09:17.581Z,0
2016-10-28T02:10:17.592Z,0
2016-10-28T02:11:18.247Z,0
2016-10-28T02:12:18.607Z,0
2016-10-28T02:13:18.276Z,0
2016-10-28T02:14:17.979Z,0
2016-10-28T02:15:18.357Z,0
2016-10-28T02:16:18.322Z,0
2016-10-28T02:17:18.043Z,0
2016-10-28T02:18:18.172Z,0
2016-10-28T02:19:18.059Z,0
2016-10-28T02:20:18.396Z,0
2016-10-28T02:21:18.412Z,0
2016-10-28T02:22:18.428Z,0
2016-10-28T02:23:18.156Z,0
2016-10-28T02:24:18.467Z,0
2016-10-28T02:25:18.472Z,0
2016-10-28T02:26:18.812Z,0
2016-10-28T02:27:18.514Z,0
2016-10-28T02:28:17.895Z,0
2016-10-28T02:29:18.884Z,0
2016-10-28T02:30:18.602Z,0
2016-10-28T02:31:18.896Z,0
2016-10-28T02:32:18.277Z,0
2016-10-28T02:33:18.928Z,0
2016-10-28T02:34:18.334Z,0
2016-10-28T02:35:18.032Z,0
2016-10-28T02:36:18.349Z,0
2016-10-28T02:37:18.741Z,0
2016-10-28T02:38:18.415Z,0
2016-10-28T02:39:18.763Z,0
2016-10-28T02:40:18.454Z,0
2016-10-28T02:41:18.759Z,0
2016-10-28T02:42:18.762Z,0
2016-10-28T02:43:19.414Z,0
2016-10-28T02:44:18.487Z,0
2016-10-28T02:45:19.129Z,0
2016-10-28T02:46:18.843Z,0
2016-10-28T02:47:18.851Z,0
2016-10-28T02:48:19.186Z,0
2016-10-28T02:49:18.885Z,0
2016-10-28T02:50:18.909Z,0
2016-10-28T02:51:18.334Z,0
2016-10-28T02:52:18.622Z,0
2016-10-28T02:53:18.995Z,0
2016-10-28T02:54:19.646Z,0
2016-10-28T02:55:19.010Z,0
2016-10-28T02:56:18.372Z,0
2016-10-28T02:57:19.356Z,0
2016-10-28T02:58:18.759Z,0
2016-10-28T02:59:19.363Z,0
2016-10-28T03:00:18.765Z,0
2016-10-28T03:01:19.102Z,0
2016-10-28T03:02:19.424Z,0
2016-10-28T03:03:19.444Z,0
2016-10-28T03:04:18.512Z,0
2016-10-28T03:05:19.844Z,0
2016-10-28T03:06:18.885Z,0
2016-10-28T03:08:19.555Z,0
2016-10-28T03:09:19.267Z,0
2016-10-28T03:10:19.255Z,0
2016-10-28T03:11:18.941Z,0
2016-10-28T03:12:18.953Z,0
2016-10-28T03:13:19.943Z,0
2016-10-28T03:14:19.313Z,0
2016-10-28T03:15:18.712Z,0
2016-10-28T03:16:19.805Z,0
2016-10-28T03:17:19.552Z,0
2016-10-28T03:18:19.452Z,0
2016-10-28T03:19:19.528Z,0
2016-10-28T03:20:19.954Z,0
2016-10-28T03:21:19.488Z,0
2016-10-28T03:22:19.306Z,0
2016-10-28T03:23:19.902Z,0
2016-10-28T03:24:20.067Z,0
2016-10-28T03:25:19.625Z,0
2016-10-28T03:26:19.349Z,0
2016-10-28T03:27:19.544Z,0
2016-10-28T03:28:19.232Z,0
2016-10-28T03:29:19.877Z,0
2016-10-28T03:30:19.606Z,0
2016-10-28T03:31:19.302Z,0
2016-10-28T03:32:19.301Z,0
2016-10-28T03:33:19.311Z,0
2016-10-28T03:34:19.642Z,0
2016-10-28T03:35:19.681Z,0
2016-10-28T03:36:19.672Z,0
2016-10-28T03:37:19.689Z,0
2016-10-28T03:38:19.710Z,0
2016-10-28T03:39:19.431Z,0
2016-10-28T03:40:19.132Z,0
2016-10-28T03:41:19.137Z,0
2016-10-28T03:42:20.124Z,0
2016-10-28T03:43:20.457Z,0
2016-10-28T03:44:19.806Z,0
2016-10-28T03:45:19.822Z,0
2016-10-28T03:46:20.159Z,0
2016-10-28T03:47:19.870Z,0
2016-10-28T03:48:19.552Z,0
2016-10-28T03:49:19.894Z,0
2016-10-28T03:50:20.226Z,0
2016-10-28T03:51:20.556Z,0
2016-10-28T03:52:19.650Z,0
2016-10-28T03:53:19.650Z,0
2016-10-28T03:54:19.658Z,0
2016-10-28T03:55:20.309Z,0
2016-10-28T03:56:20.012Z,0
2016-10-28T03:57:20.346Z,0
2016-10-28T03:58:20.365Z,0
2016-10-28T03:59:20.393Z,0
2016-10-28T04:00:20.739Z,0
2016-10-28T04:01:20.403Z,0
2016-10-28T04:02:20.103Z,0
2016-10-28T04:03:19.794Z,0
2016-10-28T04:04:20.382Z,0
2016-10-28T04:05:21.857Z,0
2016-10-28T04:06:20.164Z,0
2016-10-28T04:07:19.863Z,0
2016-10-28T04:08:20.203Z,0
2016-10-28T04:09:20.212Z,0
2016-10-28T04:10:20.304Z,0
2016-10-28T04:11:20.573Z,0
2016-10-28T04:12:20.254Z,0
2016-10-28T04:13:20.064Z,0
2016-10-28T04:14:19.979Z,0
2016-10-28T04:15:34.882Z,0
2016-10-28T04:16:20.329Z,0
2016-10-28T04:17:20.696Z,0
2016-10-28T04:18:20.388Z,0
2016-10-28T04:19:19.744Z,0
2016-10-28T04:20:20.389Z,0
2016-10-28T04:21:20.094Z,0
2016-10-28T04:22:20.452Z,0
2016-10-28T04:23:20.756Z,0
2016-10-28T04:24:20.459Z,0
2016-10-28T04:25:20.792Z,0
2016-10-28T04:26:19.890Z,0
2016-10-28T04:27:20.214Z,0
2016-10-28T04:28:20.560Z,0
2016-10-28T04:29:20.247Z,0
2016-10-28T04:30:20.555Z,0
2016-10-28T04:31:20.610Z,0
2016-10-28T04:32:21.222Z,0
2016-10-28T04:33:20.605Z,0
2016-10-28T04:34:20.628Z,0
2016-10-28T04:35:20.636Z,0
2016-10-28T04:36:20.372Z,0
2016-10-28T04:37:20.677Z,0
2016-10-28T04:38:20.700Z,0
2016-10-28T04:39:20.700Z,0
2016-10-28T04:40:20.721Z,0
2016-10-28T04:41:21.081Z,0
2016-10-28T04:42:35.320Z,0
2016-10-28T04:43:20.153Z,0
2016-10-28T04:44:20.783Z,0
2016-10-28T04:45:20.825Z,0
2016-10-28T04:46:20.502Z,0
2016-10-28T04:47:21.146Z,0
2016-10-28T04:48:20.901Z,0
2016-10-28T04:49:20.868Z,0
2016-10-28T04:50:20.573Z,0
2016-10-28T04:51:20.624Z,0
2016-10-28T04:52:21.282Z,0
2016-10-28T04:53:20.929Z,0
2016-10-28T04:54:21.571Z,0
2016-10-28T04:55:20.972Z,0
2016-10-28T04:56:20.994Z,0
2016-10-28T04:57:20.987Z,0
2016-10-28T04:58:20.720Z,0
2016-10-28T04:59:21.040Z,0
2016-10-28T05:00:21.363Z,0
2016-10-28T05:01:21.057Z,0
2016-10-28T05:02:21.078Z,0
2016-10-28T05:03:20.774Z,0
2016-10-28T05:04:21.104Z,0
2016-10-28T05:05:21.440Z,0
2016-10-28T05:06:20.823Z,0
2016-10-28T05:07:21.154Z,0
2016-10-28T05:08:21.494Z,0
2016-10-28T05:09:21.525Z,0
2016-10-28T05:10:20.887Z,0
2016-10-28T05:11:20.916Z,0
2016-10-28T05:12:21.239Z,0
2016-10-28T05:13:21.249Z,0
2016-10-28T05:14:20.680Z,0
2016-10-28T05:15:20.652Z,0
2016-10-28T05:16:20.991Z,0
2016-10-28T05:17:21.369Z,0
2016-10-28T05:18:21.703Z,0
2016-10-28T05:19:21.046Z,0
2016-10-28T05:20:21.685Z,0
2016-10-28T05:21:21.406Z,0
2016-10-28T05:22:21.418Z,0
2016-10-28T05:23:21.729Z,0
2016-10-28T05:24:21.163Z,0
2016-10-28T05:25:21.765Z,0
2016-10-28T05:26:21.465Z,0
2016-10-28T05:27:21.483Z,0
2016-10-28T05:28:21.176Z,0
2016-10-28T05:29:21.194Z,0
2016-10-28T05:30:21.584Z,0
2016-10-28T05:31:21.237Z,0
2016-10-28T05:32:22.087Z,0
2016-10-28T05:33:21.583Z,0
2016-10-28T05:34:20.964Z,0
2016-10-28T05:35:20.982Z,0
2016-10-28T05:36:21.952Z,0
2016-10-28T05:37:21.327Z,0
2016-10-28T05:38:21.658Z,0
2016-10-28T05:39:21.355Z,0
2016-10-28T05:40:22.018Z,0
2016-10-28T05:41:21.706Z,0
2016-10-28T05:42:21.752Z,0
2016-10-28T05:43:21.747Z,0
2016-10-28T05:44:21.127Z,0
2016-10-28T05:45:21.513Z,0
2016-10-28T05:46:21.852Z,0
2016-10-28T05:47:21.493Z,0
2016-10-28T05:48:21.187Z,0
2016-10-28T05:49:21.213Z,0
2016-10-28T05:50:21.861Z,0
2016-10-28T05:51:21.250Z,0
2016-10-28T05:52:21.253Z,0
2016-10-28T05:53:21.898Z,0
2016-10-28T05:54:21.657Z,0
2016-10-28T05:55:22.068Z,0
2016-10-28T05:56:21.683Z,0
2016-10-28T05:57:21.648Z,0
2016-10-28T05:58:21.666Z,0
2016-10-28T05:59:21.999Z,0
2016-10-28T06:00:21.703Z,0
2016-10-28T06:01:21.720Z,0
2016-10-28T06:02:22.390Z,0
2016-10-28T06:03:22.286Z,0
2016-10-28T06:04:22.843Z,0
2016-10-28T06:05:22.093Z,0
2016-10-28T06:06:22.274Z,0
2016-10-28T06:07:22.875Z,0
2016-10-28T06:08:21.873Z,0
2016-10-28T06:09:22.530Z,0
2016-10-28T06:10:22.526Z,0
2016-10-28T06:11:22.215Z,0
2016-10-28T06:12:21.929Z,0
2016-10-28T06:13:22.275Z,0
2016-10-28T06:14:22.579Z,0
2016-10-28T06:15:22.585Z,0
2016-10-28T06:16:21.959Z,0
2016-10-28T06:17:22.318Z,0
2016-10-28T06:18:22.016Z,0
2016-10-28T06:19:21.695Z,0
2016-10-28T06:20:22.341Z,0
2016-10-28T06:21:22.677Z,0
2016-10-28T06:22:22.073Z,5
2016-10-28T06:23:23.040Z,5
2016-10-28T06:24:22.401Z,5
2016-10-28T06:25:22.737Z,5
2016-10-28T06:26:21.817Z,5
2016-10-28T06:27:22.137Z,5
2016-10-28T06:28:22.475Z,5
2016-10-28T06:29:22.838Z,5
2016-10-28T06:30:22.504Z,5
2016-10-28T06:31:22.861Z,5
2016-10-28T06:32:22.539Z,5
2016-10-28T06:33:22.555Z,5
2016-10-28T06:34:22.884Z,5
2016-10-28T06:35:22.602Z,5
2016-10-28T06:36:22.916Z,10
2016-10-28T06:37:22.299Z,10
2016-10-28T06:38:22.667Z,10
2016-10-28T06:39:22.334Z,10
2016-10-28T06:40:22.662Z,10
2016-10-28T06:41:22.378Z,10
2016-10-28T06:42:22.400Z,10
2016-10-28T06:43:22.769Z,10
2016-10-28T06:44:22.414Z,10
2016-10-28T06:45:22.429Z,10
2016-10-28T06:46:22.455Z,10
2016-10-28T06:47:23.449Z,10
2016-10-28T06:48:22.795Z,10
2016-10-28T06:49:22.837Z,10
2016-10-28T06:50:22.890Z,10
2016-10-28T06:51:22.540Z,10
2016-10-28T06:52:22.893Z,10
2016-10-28T06:53:22.247Z,10
2016-10-28T06:54:22.592Z,10
2016-10-28T06:55:22.921Z,10
2016-10-28T06:56:23.250Z,10
2016-10-28T06:57:22.650Z,10
2016-10-28T06:58:22.966Z,10
2016-10-28T06:59:23.296Z,10
2016-10-28T07:00:22.361Z,10
2016-10-28T07:01:23.017Z,10
2016-10-28T07:02:23.042Z,10
2016-10-28T07:03:22.741Z,10
2016-10-28T07:04:23.068Z,10
2016-10-28T07:05:23.081Z,10
2016-10-28T07:06:23.412Z,10
2016-10-28T07:07:23.440Z,10
2016-10-28T07:08:23.157Z,10
2016-10-28T07:09:23.161Z,10
2016-10-28T07:10:23.476Z,10
2016-10-28T07:11:22.879Z,10
2016-10-28T07:12:23.541Z,10
2016-10-28T07:13:23.212Z,10
2016-10-28T07:14:23.238Z,10
2016-10-28T07:15:22.961Z,10
2016-10-28T07:16:23.299Z,15
2016-10-28T07:17:22.989Z,15
2016-10-28T07:18:23.289Z,20
2016-10-28T07:19:23.017Z,20
2016-10-28T07:20:23.332Z,30
2016-10-28T07:21:23.360Z,35
2016-10-28T07:22:23.366Z,40
2016-10-28T07:23:23.066Z,45
2016-10-28T07:24:23.396Z,45
2016-10-28T07:25:23.100Z,45
2016-10-28T07:26:23.162Z,40
2016-10-28T07:27:23.456Z,40
2016-10-28T07:28:23.480Z,45
2016-10-28T07:29:23.812Z,60
2016-10-28T07:30:23.505Z,65
2016-10-28T07:31:22.887Z,70
2016-10-28T07:32:23.853Z,95
2016-10-28T07:33:23.242Z,85
2016-10-28T07:34:23.259Z,85
2016-10-28T07:35:23.591Z,100
2016-10-28T07:36:23.298Z,150
2016-10-28T07:37:22.999Z,145
2016-10-28T07:38:23.985Z,150
2016-10-28T07:39:23.359Z,175
2016-10-28T07:40:24.011Z,155
2016-10-28T07:41:24.252Z,105
2016-10-28T07:42:23.729Z,95
2016-10-28T07:43:23.441Z,140
2016-10-28T07:44:24.100Z,220
2016-10-28T07:45:23.474Z,570
2016-10-28T07:46:23.495Z,990
2016-10-28T07:47:23.516Z,910
2016-10-28T07:48:24.483Z,855
2016-10-28T07:49:23.880Z,840
2016-10-28T07:50:24.262Z,770
2016-10-28T07:51:24.240Z,665
2016-10-28T07:52:23.942Z,280
2016-10-28T07:53:23.966Z,90
2016-10-28T07:54:24.005Z,140
2016-10-28T07:55:24.022Z,285
2016-10-28T07:56:23.722Z,520
2016-10-28T07:57:23.440Z,520
2016-10-28T07:58:24.093Z,355
2016-10-28T07:59:23.802Z,260
2016-10-28T08:00:24.431Z,230
2016-10-28T08:01:23.882Z,245
2016-10-28T08:02:24.220Z,230
2016-10-28T08:03:23.558Z,255
2016-10-28T08:04:24.573Z,360
2016-10-28T08:05:24.878Z,460
2016-10-28T08:06:24.574Z,525
2016-10-28T08:07:24.286Z,565
2016-10-28T08:08:24.642Z,525
2016-10-28T08:09:24.664Z,290
2016-10-28T08:10:24.681Z,195
2016-10-28T08:11:24.062Z,210
2016-10-28T08:13:24.156Z,1305
2016-10-28T08:14:24.461Z,1175
2016-10-28T08:15:24.154Z,835
2016-10-28T08:16:24.493Z,660
2016-10-28T08:17:24.518Z,720
2016-10-28T08:18:24.228Z,990
2016-10-28T08:19:24.300Z,790
2016-10-28T08:20:24.602Z,640
2016-10-28T08:21:24.316Z,715
2016-10-28T08:22:24.650Z,1175
2016-10-28T08:23:24.671Z,1455
2016-10-28T08:24:25.043Z,1075
2016-10-28T08:25:24.727Z,400
2016-10-28T08:26:24.479Z,165
2016-10-28T08:27:24.450Z,110
2016-10-28T08:28:25.123Z,90
2016-10-28T08:29:24.905Z,80
2016-10-28T08:30:25.168Z,75
2016-10-28T08:31:24.547Z,75
2016-10-28T08:32:25.259Z,75
2016-10-28T08:33:24.906Z,75
2016-10-28T08:34:24.953Z,80
2016-10-28T08:35:24.653Z,80
2016-10-28T08:36:24.675Z,135
2016-10-28T08:37:24.688Z,195
2016-10-28T08:38:25.032Z,315
2016-10-28T08:39:24.851Z,400
2016-10-28T08:40:25.440Z,375
2016-10-28T08:41:24.787Z,350
2016-10-28T08:42:24.807Z,430
2016-10-28T08:43:24.834Z,635
2016-10-28T08:44:25.178Z,580
2016-10-28T08:45:25.839Z,445
2016-10-28T08:46:25.548Z,355
2016-10-28T08:47:25.281Z,165
2016-10-28T08:48:25.282Z,105
2016-10-28T08:49:25.622Z,95
2016-10-28T08:50:25.018Z,90
2016-10-28T08:51:25.346Z,85
2016-10-28T08:52:25.693Z,125
2016-10-28T08:53:25.397Z,90
2016-10-28T08:54:25.429Z,85
2016-10-28T08:55:25.137Z,85
2016-10-28T08:56:25.489Z,170
2016-10-28T08:57:25.498Z,145
2016-10-28T08:58:26.217Z,95
2016-10-28T08:59:26.208Z,75
2016-10-28T09:00:25.262Z,75
2016-10-28T09:01:25.638Z,70
2016-10-28T09:02:25.311Z,70
2016-10-28T09:03:25.645Z,70
2016-10-28T09:04:25.371Z,70
2016-10-28T09:05:25.380Z,70
2016-10-28T09:06:25.710Z,70
2016-10-28T09:07:25.737Z,65
2016-10-28T09:08:25.457Z,65
2016-10-28T09:09:25.503Z,65
2016-10-28T09:10:25.524Z,65
2016-10-28T09:11:25.867Z,70
2016-10-28T09:12:25.895Z,70
2016-10-28T09:13:26.201Z,75
2016-10-28T09:14:26.231Z,80
2016-10-28T09:15:25.931Z,80
2016-10-28T09:16:26.285Z,80
2016-10-28T09:17:26.609Z,75
2016-10-28T09:18:25.681Z,70
2016-10-28T09:19:26.027Z,75
2016-10-28T09:20:25.423Z,75
2016-10-28T09:21:26.072Z,70
2016-10-28T09:22:26.767Z,70
2016-10-28T09:23:26.463Z,80
2016-10-28T09:24:26.465Z,90
2016-10-28T09:25:26.195Z,80
2016-10-28T09:26:26.196Z,115
2016-10-28T09:27:25.588Z,100
2016-10-28T09:28:25.930Z,70
2016-10-28T09:29:26.313Z,65
2016-10-28T09:30:26.293Z,65
2016-10-28T09:31:25.682Z,65
2016-10-28T09:32:26.027Z,65
2016-10-28T09:33:26.350Z,65
2016-10-28T09:34:27.079Z,70
2016-10-28T09:35:25.776Z,75
2016-10-28T09:36:26.443Z,75
2016-10-28T09:37:26.447Z,75
2016-10-28T09:38:26.825Z,80
2016-10-28T09:39:26.186Z,70
2016-10-28T09:40:26.654Z,65
2016-10-28T09:41:26.545Z,65
2016-10-28T09:42:26.257Z,80
2016-10-28T09:43:41.486Z,80
2016-10-28T09:44:26.315Z,70
2016-10-28T09:45:26.655Z,70
2016-10-28T09:46:26.374Z,110
2016-10-28T09:47:26.375Z,115
2016-10-28T09:48:26.757Z,95
2016-10-28T09:49:27.193Z,105
2016-10-28T09:50:26.763Z,105
2016-10-28T09:51:26.801Z,100
2016-10-28T09:52:26.809Z,80
2016-10-28T09:53:26.832Z,75
2016-10-28T09:54:26.863Z,80
2016-10-28T09:55:26.580Z,85
2016-10-28T09:56:26.913Z,75
2016-10-28T09:57:26.322Z,80
2016-10-28T09:58:26.340Z,75
2016-10-28T09:59:26.991Z,70
2016-10-28T10:00:27.067Z,65
2016-10-28T10:01:26.731Z,65
2016-10-28T10:02:26.767Z,65
2016-10-28T10:03:27.096Z,60
2016-10-28T10:04:27.115Z,60
2016-10-28T10:05:27.197Z,60
2016-10-28T10:06:27.785Z,60
2016-10-28T10:07:27.176Z,60
2016-10-28T10:08:27.232Z,60
2016-10-28T10:09:27.555Z,65
2016-10-28T10:10:26.953Z,65
2016-10-28T10:11:26.954Z,65
2016-10-28T10:12:27.309Z,60
2016-10-28T10:13:26.696Z,60
2016-10-28T10:14:27.037Z,60
2016-10-28T10:15:27.693Z,65
2016-10-28T10:16:27.410Z,60
2016-10-28T10:17:26.792Z,65
2016-10-28T10:18:28.080Z,60
2016-10-28T10:19:27.152Z,55
2016-10-28T10:20:28.046Z,55
2016-10-28T10:21:27.204Z,55
2016-10-28T10:22:27.264Z,60
2016-10-28T10:23:27.902Z,55
2016-10-28T10:24:27.590Z,55
2016-10-28T10:25:27.720Z,45
2016-10-28T10:26:27.324Z,40
2016-10-28T10:27:27.385Z,45
2016-10-28T10:28:27.692Z,45
2016-10-28T10:29:27.399Z,60
2016-10-28T10:30:27.108Z,65
2016-10-28T10:31:27.168Z,65
2016-10-28T10:32:27.475Z,70
2016-10-28T10:33:28.129Z,55
2016-10-28T10:34:27.836Z,60
2016-10-28T10:35:28.171Z,50
2016-10-28T10:36:27.927Z,50
2016-10-28T10:37:27.616Z,65
2016-10-28T10:38:28.273Z,55
2016-10-28T10:39:27.658Z,60
2016-10-28T10:40:28.003Z,70
2016-10-28T10:41:28.021Z,40
2016-10-28T10:42:28.053Z,35
2016-10-28T10:43:28.081Z,35
2016-10-28T10:44:27.814Z,35
2016-10-28T10:45:28.132Z,40
2016-10-28T10:46:28.134Z,45
2016-10-28T10:47:27.862Z,35
2016-10-28T10:48:28.193Z,25
2016-10-28T10:49:28.548Z,25
2016-10-28T10:50:28.248Z,25
2016-10-28T10:51:28.262Z,30
2016-10-28T10:52:28.284Z,35
2016-10-28T10:53:27.697Z,30
2016-10-28T10:54:28.334Z,30
2016-10-28T10:55:28.672Z,30
2016-10-28T10:56:28.391Z,30
2016-10-28T10:57:28.444Z,25
2016-10-28T10:58:28.158Z,25
2016-10-28T10:59:28.148Z,30
2016-10-28T11:00:28.540Z,40
2016-10-28T11:01:28.814Z,35
2016-10-28T11:02:27.894Z,35
2016-10-28T11:03:28.870Z,45
2016-10-28T11:04:28.942Z,40
2016-10-28T11:05:27.974Z,40
2016-10-28T11:06:28.938Z,50
2016-10-28T11:07:28.714Z,30
2016-10-28T11:08:28.365Z,30
2016-10-28T11:09:28.742Z,25
2016-10-28T11:10:29.027Z,40
2016-10-28T11:11:29.380Z,45
2016-10-28T11:12:28.150Z,50
2016-10-28T11:13:28.193Z,50
2016-10-28T11:14:28.545Z,45
2016-10-28T11:15:29.161Z,45
2016-10-28T11:16:28.866Z,50
2016-10-28T11:17:28.894Z,50
2016-10-28T11:18:28.290Z,45
2016-10-28T11:19:28.652Z,50
2016-10-28T11:20:29.285Z,50
2016-10-28T11:21:28.984Z,50
2016-10-28T11:22:28.735Z,45
2016-10-28T11:23:29.348Z,45
2016-10-28T11:24:29.061Z,45
2016-10-28T11:25:28.776Z,50
2016-10-28T11:26:29.437Z,50
2016-10-28T11:27:29.138Z,50
2016-10-28T11:28:29.478Z,50
2016-10-28T11:29:29.188Z,40
2016-10-28T11:30:28.908Z,50
2016-10-28T11:31:29.548Z,45
2016-10-28T11:32:28.941Z,40
2016-10-28T11:33:29.596Z,50
2016-10-28T11:34:29.951Z,50
2016-10-28T11:35:29.025Z,50
2016-10-28T11:36:29.378Z,50
2016-10-28T11:37:29.708Z,50
2016-10-28T11:38:29.769Z,50
2016-10-28T11:39:28.797Z,50
2016-10-28T11:40:29.462Z,50
2016-10-28T11:41:29.168Z,40
2016-10-28T11:42:28.877Z,40
2016-10-28T11:43:29.216Z,50
2016-10-28T11:44:29.564Z,20
2016-10-28T11:45:29.580Z,20
2016-10-28T11:46:29.306Z,20
2016-10-28T11:47:29.636Z,20
2016-10-28T11:48:29.664Z,20
2016-10-28T11:49:29.996Z,20
2016-10-28T11:50:29.711Z,15
2016-10-28T11:51:29.161Z,15
2016-10-28T11:52:29.435Z,15
2016-10-28T11:53:29.776Z,15
2016-10-28T11:54:29.800Z,15
2016-10-28T11:55:29.827Z,15
2016-10-28T11:56:30.163Z,20
2016-10-28T11:57:29.563Z,15
2016-10-28T11:59:29.925Z,20
2016-10-28T12:00:30.313Z,20
2016-10-28T12:01:29.661Z,20
2016-10-28T12:02:30.322Z,20
2016-10-28T12:03:29.707Z,30
2016-10-28T12:04:30.367Z,30
2016-10-28T12:05:29.800Z,35
2016-10-28T12:06:29.799Z,50
2016-10-28T12:07:30.453Z,40
2016-10-28T12:08:29.561Z,40
2016-10-28T12:09:30.197Z,50
2016-10-28T12:10:29.566Z,40
2016-10-28T12:11:29.897Z,45
2016-10-28T12:12:30.243Z,40
2016-10-28T12:13:30.260Z,35
2016-10-28T12:14:30.597Z,20
2016-10-28T12:15:30.310Z,40
2016-10-28T12:16:30.399Z,40
2016-10-28T12:17:30.043Z,45
2016-10-28T12:18:30.706Z,35
2016-10-28T12:19:29.776Z,40
2016-10-28T12:20:30.450Z,40
2016-10-28T12:21:30.473Z,40
2016-10-28T12:22:30.488Z,40
2016-10-28T12:23:30.521Z,30
2016-10-28T12:24:30.223Z,25
2016-10-28T12:25:30.243Z,30
2016-10-28T12:26:30.274Z,35
2016-10-28T12:27:45.529Z,30
2016-10-28T12:28:31.266Z,25
2016-10-28T12:29:31.330Z,20
2016-10-28T12:30:30.680Z,20
2016-10-28T12:31:30.704Z,35
2016-10-28T12:32:30.756Z,30
2016-10-28T12:33:30.754Z,25
2016-10-28T12:34:30.463Z,25
2016-10-28T12:35:31.426Z,20
2016-10-28T12:36:30.192Z,20
2016-10-28T12:37:30.534Z,20
2016-10-28T12:38:31.564Z,20
2016-10-28T12:39:30.908Z,20
2016-10-28T12:40:30.609Z,25
2016-10-28T12:41:31.319Z,30
2016-10-28T12:42:31.012Z,25
2016-10-28T12:43:31.011Z,25
2016-10-28T12:44:31.358Z,30
2016-10-28T12:45:31.041Z,30
2016-10-28T12:46:30.471Z,30
2016-10-28T12:47:30.465Z,35
2016-10-28T12:48:31.168Z,35
2016-10-28T12:49:31.141Z,35
2016-10-28T12:50:31.516Z,30
2016-10-28T12:51:31.549Z,30
2016-10-28T12:52:31.223Z,30
2016-10-28T12:53:31.288Z,30
2016-10-28T12:54:31.287Z,25
2016-10-28T12:55:31.934Z,25
2016-10-28T12:56:31.316Z,25
2016-10-28T12:57:31.679Z,20
2016-10-28T12:58:31.362Z,20
2016-10-28T12:59:31.698Z,25
2016-10-28T13:00:31.724Z,20
2016-10-28T13:01:31.493Z,20
2016-10-28T13:02:30.865Z,20
2016-10-28T13:03:31.266Z,20
2016-10-28T13:04:31.513Z,20
2016-10-28T13:05:31.907Z,25
2016-10-28T13:06:31.889Z,30
2016-10-28T13:07:31.899Z,30
2016-10-28T13:08:31.626Z,25
2016-10-28T13:09:31.003Z,25
2016-10-28T13:10:31.707Z,25
2016-10-28T13:11:31.687Z,20
2016-10-28T13:12:31.743Z,20
2016-10-28T13:13:31.798Z,20
2016-10-28T13:14:31.806Z,20
2016-10-28T13:15:31.782Z,20
2016-10-28T13:16:31.481Z,20
2016-10-28T13:17:31.501Z,15
2016-10-28T13:18:31.880Z,20
2016-10-28T13:19:31.577Z,20
2016-10-28T13:20:31.581Z,20
2016-10-28T13:21:31.604Z,20
2016-10-28T13:22:31.641Z,25
2016-10-28T13:23:32.533Z,20
2016-10-28T13:24:31.690Z,20
2016-10-28T13:25:32.411Z,20
2016-10-28T13:26:31.821Z,20
2016-10-28T13:27:32.442Z,15
2016-10-28T13:28:32.082Z,15
2016-10-28T13:29:32.119Z,20
2016-10-28T13:30:32.514Z,15
2016-10-28T13:31:31.912Z,15
2016-10-28T13:32:32.538Z,15
2016-10-28T13:33:31.591Z,15
2016-10-28T13:34:32.231Z,15
2016-10-28T13:35:32.249Z,15
2016-10-28T13:36:32.621Z,15
2016-10-28T13:37:32.303Z,20
2016-10-28T13:38:32.327Z,20
2016-10-28T13:39:32.687Z,20
2016-10-28T13:40:32.735Z,20
2016-10-28T13:41:32.400Z,15
2016-10-28T13:42:33.075Z,20
2016-10-28T13:43:32.489Z,20
2016-10-28T13:44:32.959Z,15
2016-10-28T13:45:32.223Z,20
2016-10-28T13:46:32.541Z,15
2016-10-28T13:47:32.538Z,20
2016-10-28T13:48:32.333Z,20
2016-10-28T13:49:32.625Z,15
2016-10-28T13:50:32.973Z,15
2016-10-28T13:51:32.351Z,20
2016-10-28T13:52:32.654Z,20
2016-10-28T13:53:33.012Z,25
2016-10-28T13:54:32.458Z,15
2016-10-28T13:55:32.771Z,20
2016-10-28T13:56:32.434Z,15
2016-10-28T13:57:32.774Z,15
2016-10-28T13:58:32.833Z,15
2016-10-28T13:59:32.886Z,15
2016-10-28T14:00:32.535Z,15
2016-10-28T14:01:32.560Z,15
2016-10-28T14:02:32.591Z,15
2016-10-28T14:03:33.261Z,15
2016-10-28T14:04:33.255Z,15
2016-10-28T14:05:32.971Z,15
2016-10-28T14:06:32.988Z,15
2016-10-28T14:07:33.167Z,15
2016-10-28T14:08:33.505Z,15
2016-10-28T14:09:33.331Z,15
2016-10-28T14:10:34.158Z,15
2016-10-28T14:11:33.454Z,15
2016-10-28T14:12:33.466Z,15
2016-10-28T14:13:33.219Z,15
2016-10-28T14:14:33.204Z,15
2016-10-28T14:15:33.534Z,15
2016-10-28T14:16:32.591Z,15
2016-10-28T14:17:33.569Z,15
2016-10-28T14:18:33.589Z,15
2016-10-28T14:19:33.297Z,15
2016-10-28T14:20:33.330Z,15
2016-10-28T14:21:33.979Z,15
2016-10-28T14:22:32.747Z,15
2016-10-28T14:23:33.389Z,15
2016-10-28T14:24:33.101Z,15
2016-10-28T14:25:33.460Z,15
2016-10-28T14:26:33.167Z,15
2016-10-28T14:27:33.482Z,15
2016-10-28T14:28:33.532Z,15
2016-10-28T14:29:33.859Z,15